Time;durP1;ratioP1;P1;durP2;ratioP2;P2;SDS_P1;SDS_P2;PMS_P1;PMS_P2;Temp;Humidity;BMP_temperature;BMP_pressure;BME280_temperature;BME280_humidity;BME280_pressure;Samples;Min_cycle;Max_cycle;Signal;HPM_P1;HPM_P2
2023/06/07 00:01:50;;;;;;;;;;;;;;;;;;2206112;59;3732;-23
2023/06/07 00:04:20;;;;;;;;;;;;;;;;;;2204395;66;4054;-24
2023/06/07 00:06:56;;;;;;;;;;;;;;;;;;2205343;66;1675;-23
2023/06/07 00:09:29;;;;;;;;;;;;;;;;;;2204069;66;2898;-23
2023/06/07 00:12:00;;;;;;;;;;;;;;;;;;2199763;66;2741;-23
2023/06/07 00:14:30;;;;;;;;;;;;;;;;;;2204312;66;2746;-23
2023/06/07 00:17:00;;;;;;;;;;;;;;;;;;2204175;59;3139;-24
2023/06/07 00:19:30;;;;;;;;;;;;;;;;;;2204012;66;2712;-23
2023/06/07 00:22:02;;;;;;;;;;;;;;;;;;2202918;59;3499;-23
2023/06/07 00:24:32;;;;;;;;;;;;;;;;;;2200951;66;2704;-23
2023/06/07 00:27:02;;;;;;;;;;;;;;;;;;2200461;66;3914;-23
2023/06/07 00:29:32;;;;;;;;;;;;;;;;;;2202868;66;3175;-23
2023/06/07 00:32:03;;;;;;;;;;;;;;;;;;2202750;66;3300;-23
2023/06/07 00:34:33;;;;;;;;;;;;;;;;;;2200964;59;3298;-24
2023/06/07 00:37:03;;;;;;;;;;;;;;;;;;2204229;59;2687;-24
2023/06/07 00:39:34;;;;;;;;;;;;;;;;;;2203788;66;2921;-23
2023/06/07 00:42:05;;;;;;;;;;;;;;;;;;2201870;66;3161;-23
2023/06/07 00:44:36;;;;;;;;;;;;;;;;;;2200226;66;2860;-23
2023/06/07 00:47:06;;;;;;;;;;;;;;;;;;2203569;66;2776;-23
2023/06/07 00:49:37;;;;;;;;;;;;;;;;;;2203619;59;2938;-24
2023/06/07 00:52:07;;;;;;;;;;;;;;;;;;2204619;59;2278;-23
2023/06/07 00:54:37;;;;;;;;;;;;;;;;;;2200836;59;2578;-23
2023/06/07 00:57:07;;;;;;;;;;;;;;;;;;2203796;66;2162;-23
2023/06/07 00:59:38;;;;;;;;;;;;;;;;;;2204624;59;2800;-23
2023/06/07 01:02:08;;;;;;;;;;;;;;;;;;2207219;59;2753;-24
2023/06/07 01:04:39;;;;;;;;;;;;;;;;;;2203463;66;2825;-23
2023/06/07 01:07:11;;;;;;;;;;;;;;;;;;2203917;66;2951;-23
2023/06/07 01:09:41;;;;;;;;;;;;;;;;;;2203746;66;3507;-23
2023/06/07 01:12:13;;;;;;;;;;;;;;;;;;2203822;59;3207;-23
2023/06/07 01:14:44;;;;;;;;;;;;;;;;;;2205220;66;2976;-23
2023/06/07 01:17:17;;;;;;;;;;;;;;;;;;2204135;59;2862;-23
2023/06/07 01:19:53;;;;;;;;;;;;;;;;;;2203897;66;2581;-23
2023/06/07 01:22:27;;;;;;;;;;;;;;;;;;2202510;59;2841;-23
2023/06/07 01:25:00;;;;;;;;;;;;;;;;;;2200583;66;2829;-23
2023/06/07 01:27:31;;;;;;;;;;;;;;;;;;2203546;59;2508;-23
2023/06/07 01:30:01;;;;;;;;;;;;;;;;;;2204241;66;2711;-23
2023/06/07 01:32:32;;;;;;;;;;;;;;;;;;2203753;59;3237;-24
2023/06/07 01:35:03;;;;;;;;;;;;;;;;;;2203512;59;1967;-23
2023/06/07 01:37:34;;;;;;;;;;;;;;;;;;2203705;59;2803;-23
2023/06/07 01:40:05;;;;;;;;;;;;;;;;;;2214972;53;3004;-22
2023/06/07 01:42:36;;;;;;;;;;;;;;;;;;2211806;59;3297;-22
2023/06/07 01:45:06;;;;;;;;;;;;;;;;;;2215608;58;2223;-22
2023/06/07 01:47:37;;;;;;;;;;;;;;;;;;2211923;58;2891;-22
2023/06/07 01:50:10;;;;;;;;;;;;;;;;;;2215132;59;2604;-22
2023/06/07 01:52:40;;;;;;;;;;;;;;;;;;2215635;58;2512;-22
2023/06/07 01:55:10;;;;;;;;;;;;;;;;;;2215792;58;2646;-22
2023/06/07 01:57:47;;;;;;;;;;;;;;;;;;2215786;58;3369;-22
2023/06/07 02:00:34;;;;;;;;;;;;;;;;;;2215439;58;2687;-22
2023/06/07 02:03:16;;;;;;;;;;;;;;;;;;2215685;58;2129;-22
2023/06/07 02:05:52;;;;;;;;;;;;;;;;;;2215114;59;2470;-22
2023/06/07 02:08:26;;;;;;;;;;;;;;;;;;2212161;59;2929;-22
2023/06/07 02:10:57;;;;;;;;;;;;;;;;;;2217486;59;2636;-22
2023/06/07 02:13:29;;;;;;;;;;;;;;;;;;2216635;58;2656;-22
2023/06/07 02:16:00;;;;;;;;;;;;;;;;;;2220126;58;2177;-22
2023/06/07 02:18:31;;;;;;;;;;;;;;;;;;2215382;66;2612;-22
2023/06/07 02:21:01;;;;;;;;;;;;;;;;;;2215383;66;2958;-22
2023/06/07 02:23:31;;;;;;;;;;;;;;;;;;2218043;58;2098;-22
2023/06/07 02:26:02;;;;;;;;;;;;;;;;;;2214891;66;2189;-22
2023/06/07 02:28:32;;;;;;;;;;;;;;;;;;2213468;66;2631;-22
2023/06/07 02:31:03;;;;;;;;;;;;;;;;;;2215481;66;2764;-21
2023/06/07 02:33:36;;;;;;;;;;;;;;;;;;2215357;58;3200;-21
2023/06/07 02:36:06;;;;;;;;;;;;;;;;;;2211574;59;2663;-21
2023/06/07 02:38:36;;;;;;;;;;;;;;;;;;2215648;58;2597;-21
2023/06/07 02:41:06;;;;;;;;;;;;;;;;;;2215779;58;2778;-21
2023/06/07 02:43:36;;;;;;;;;;;;;;;;;;2215033;66;2991;-21
2023/06/07 02:46:07;;;;;;;;;;;;;;;;;;2215762;66;2029;-21
2023/06/07 02:48:38;;;;;;;;;;;;;;;;;;2217643;58;2769;-21
2023/06/07 02:51:08;;;;;;;;;;;;;;;;;;2213777;59;2678;-21
2023/06/07 02:53:38;;;;;;;;;;;;;;;;;;2219372;66;1998;-21
2023/06/07 02:56:09;;;;;;;;;;;;;;;;;;2216476;59;2947;-21
2023/06/07 02:58:39;;;;;;;;;;;;;;;;;;2219002;59;3307;-21
2023/06/07 03:01:09;;;;;;;;;;;;;;;;;;2215897;58;2692;-21
2023/06/07 03:03:41;;;;;;;;;;;;;;;;;;2217287;66;3081;-21
2023/06/07 03:06:11;;;;;;;;;;;;;;;;;;2216389;66;2199;-21
2023/06/07 03:08:42;;;;;;;;;;;;;;;;;;2214405;59;2579;-21
2023/06/07 03:11:12;;;;;;;;;;;;;;;;;;2215369;66;2763;-21
2023/06/07 03:13:42;;;;;;;;;;;;;;;;;;2212167;66;2826;-21
2023/06/07 03:16:12;;;;;;;;;;;;;;;;;;2216542;58;3094;-21
2023/06/07 03:18:42;;;;;;;;;;;;;;;;;;2215418;66;2305;-21
2023/06/07 03:21:13;;;;;;;;;;;;;;;;;;2215612;66;3026;-21
2023/06/07 03:23:43;;;;;;;;;;;;;;;;;;2212176;59;3282;-21
2023/06/07 03:26:14;;;;;;;;;;;;;;;;;;2215592;66;2624;-21
2023/06/07 03:28:44;;;;;;;;;;;;;;;;;;2215382;66;3060;-22
2023/06/07 03:31:14;;;;;;;;;;;;;;;;;;2214304;66;2698;-21
2023/06/07 03:33:45;;;;;;;;;;;;;;;;;;2214775;66;2795;-21
2023/06/07 03:36:17;;;;;;;;;;;;;;;;;;2214757;58;2833;-21
2023/06/07 03:38:47;;;;;;;;;;;;;;;;;;2212726;59;2299;-21
2023/06/07 03:41:17;;;;;;;;;;;;;;;;;;2215364;66;2718;-21
2023/06/07 03:43:47;;;;;;;;;;;;;;;;;;2216061;66;2224;-21
2023/06/07 03:46:18;;;;;;;;;;;;;;;;;;2215202;66;2663;-21
2023/06/07 03:48:48;;;;;;;;;;;;;;;;;;2215191;58;3055;-21
2023/06/07 03:51:18;;;;;;;;;;;;;;;;;;2214995;58;2687;-21
2023/06/07 03:53:48;;;;;;;;;;;;;;;;;;2215912;66;2867;-21
2023/06/07 03:56:19;;;;;;;;;;;;;;;;;;2215020;66;2810;-21
2023/06/07 03:58:49;;;;;;;;;;;;;;;;;;2212353;59;2213;-21
2023/06/07 04:01:19;;;;;;;;;;;;;;;;;;2215349;58;2981;-21
2023/06/07 04:03:49;;;;;;;;;;;;;;;;;;2215557;66;2945;-21
2023/06/07 04:06:24;;;;;;;;;;;;;;;;;;2215319;66;2634;-21
2023/06/07 04:08:57;;;;;;;;;;;;;;;;;;2216419;66;2508;-21
2023/06/07 04:11:31;;;;;;;;;;;;;;;;;;2215261;59;2051;-21
2023/06/07 04:14:04;;;;;;;;;;;;;;;;;;2216229;66;2881;-21
2023/06/07 04:16:34;;;;;;;;;;;;;;;;;;2215735;66;3065;-21
2023/06/07 04:19:04;;;;;;;;;;;;;;;;;;2215726;66;2004;-21
2023/06/07 04:21:35;;;;;;;;;;;;;;;;;;2215356;66;2692;-21
2023/06/07 04:24:06;;;;;;;;;;;;;;;;;;2214910;58;2026;-21
2023/06/07 04:26:37;;;;;;;;;;;;;;;;;;2212910;66;2764;-21
2023/06/07 04:29:07;;;;;;;;;;;;;;;;;;2215583;66;3010;-21
2023/06/07 04:31:39;;;;;;;;;;;;;;;;;;2215065;66;2566;-21
2023/06/07 04:34:09;;;;;;;;;;;;;;;;;;2215762;66;2640;-21
2023/06/07 04:36:39;;;;;;;;;;;;;;;;;;2213329;59;3114;-21
2023/06/07 04:39:10;;;;;;;;;;;;;;;;;;2212290;58;2057;-21
2023/06/07 04:41:45;;;;;;;;;;;;;;;;;;2215786;66;3240;-21
2023/06/07 04:44:27;;;;;;;;;;;;;;;;;;2215084;66;2048;-21
2023/06/07 04:46:59;;;;;;;;;;;;;;;;;;2215654;60;2609;-21
2023/06/07 04:49:33;;;;;;;;;;;;;;;;;;2214778;59;1720;-21
2023/06/07 04:52:04;;;;;;;;;;;;;;;;;;2213435;59;2188;-21
2023/06/07 04:54:36;;;;;;;;;;;;;;;;;;2215076;58;2695;-21
2023/06/07 04:57:11;;;;;;;;;;;;;;;;;;2215887;66;3225;-21
2023/06/07 04:59:48;;;;;;;;;;;;;;;;;;2215047;58;2802;-21
2023/06/07 05:02:18;;;;;;;;;;;;;;;;;;2216017;58;2807;-21
2023/06/07 05:04:48;;;;;;;;;;;;;;;;;;2215322;66;3362;-21
2023/06/07 05:07:19;;;;;;;;;;;;;;;;;;2214934;59;2703;-21
2023/06/07 05:09:49;;;;;;;;;;;;;;;;;;2211869;66;3305;-21
2023/06/07 05:12:19;;;;;;;;;;;;;;;;;;2211369;59;3267;-21
2023/06/07 05:14:50;;;;;;;;;;;;;;;;;;2215641;66;2657;-21
2023/06/07 05:17:20;;;;;;;;;;;;;;;;;;2215846;66;2698;-22
2023/06/07 05:19:51;;;;;;;;;;;;;;;;;;2215504;59;2709;-22
2023/06/07 05:22:21;;;;;;;;;;;;;;;;;;2215202;59;2061;-22
2023/06/07 05:24:52;;;;;;;;;;;;;;;;;;2215559;66;2760;-22
2023/06/07 05:27:22;;;;;;;;;;;;;;;;;;2214594;66;2953;-22
2023/06/07 05:29:52;;;;;;;;;;;;;;;;;;2214851;66;2832;-22
2023/06/07 05:32:22;;;;;;;;;;;;;;;;;;2215341;59;2139;-22
2023/06/07 05:34:52;;;;;;;;;;;;;;;;;;2215886;59;2001;-22
2023/06/07 05:37:23;;;;;;;;;;;;;;;;;;2212244;59;2271;-22
2023/06/07 05:39:54;;;;;;;;;;;;;;;;;;2215778;58;2823;-22
2023/06/07 05:42:24;;;;;;;;;;;;;;;;;;2212397;66;1985;-22
2023/06/07 05:44:54;;;;;;;;;;;;;;;;;;2215176;66;2632;-22
2023/06/07 05:47:25;;;;;;;;;;;;;;;;;;2215844;66;2161;-22
2023/06/07 05:49:55;;;;;;;;;;;;;;;;;;2212531;59;3018;-22
2023/06/07 05:52:25;;;;;;;;;;;;;;;;;;2215887;59;1959;-22
2023/06/07 05:54:57;;;;;;;;;;;;;;;;;;2211871;59;2864;-22
2023/06/07 05:57:27;;;;;;;;;;;;;;;;;;2215163;59;2307;-22
2023/06/07 05:59:57;;;;;;;;;;;;;;;;;;2215934;66;3347;-22
2023/06/07 06:02:29;;;;;;;;;;;;;;;;;;2216103;58;1961;-22
2023/06/07 06:04:59;;;;;;;;;;;;;;;;;;2215297;66;2906;-22
2023/06/07 06:07:30;;;;;;;;;;;;;;;;;;2216219;66;2945;-22
2023/06/07 06:10:00;;;;;;;;;;;;;;;;;;2215012;66;2979;-22
2023/06/07 06:12:30;;;;;;;;;;;;;;;;;;2215527;66;3292;-22
2023/06/07 06:15:01;;;;;;;;;;;;;;;;;;2215882;59;3045;-22
2023/06/07 06:17:31;;;;;;;;;;;;;;;;;;2212100;66;2521;-22
2023/06/07 06:20:02;;;;;;;;;;;;;;;;;;2215214;66;2872;-22
2023/06/07 06:22:32;;;;;;;;;;;;;;;;;;2215345;66;2524;-22
2023/06/07 06:25:05;;;;;;;;;;;;;;;;;;2216452;66;2316;-22
2023/06/07 06:27:35;;;;;;;;;;;;;;;;;;2216027;66;2993;-22
2023/06/07 06:30:09;;;;;;;;;;;;;;;;;;2216288;66;3302;-22
2023/06/07 06:32:39;;;;;;;;;;;;;;;;;;2212591;59;2502;-22
2023/06/07 06:35:10;;;;;;;;;;;;;;;;;;2213185;58;2748;-22
2023/06/07 06:37:41;;;;;;;;;;;;;;;;;;2216301;58;2817;-22
2023/06/07 06:40:12;;;;;;;;;;;;;;;;;;2211195;59;2229;-22
2023/06/07 06:42:42;;;;;;;;;;;;;;;;;;2212901;66;2154;-22
2023/06/07 06:45:12;;;;;;;;;;;;;;;;;;2215908;66;2665;-22
2023/06/07 06:47:42;;;;;;;;;;;;;;;;;;2215085;58;2655;-22
2023/06/07 06:50:13;;;;;;;;;;;;;;;;;;2215902;66;1780;-22
2023/06/07 06:52:43;;;;;;;;;;;;;;;;;;2216367;58;2682;-22
2023/06/07 06:55:13;;;;;;;;;;;;;;;;;;2216501;58;2942;-22
2023/06/07 06:57:44;;;;;;;;;;;;;;;;;;2216294;58;2628;-21
2023/06/07 07:00:14;;;;;;;;;;;;;;;;;;2215416;58;2956;-21
2023/06/07 07:02:47;;;;;;;;;;;;;;;;;;2216812;58;2928;-21
2023/06/07 07:05:17;;;;;;;;;;;;;;;;;;2216174;59;2910;-21
2023/06/07 07:07:48;;;;;;;;;;;;;;;;;;2215292;66;2679;-21
2023/06/07 07:10:18;;;;;;;;;;;;;;;;;;2215648;66;2826;-21
2023/06/07 07:12:48;;;;;;;;;;;;;;;;;;2216139;66;2597;-22
2023/06/07 07:15:19;;;;;;;;;;;;;;;;;;2215319;58;2680;-21
2023/06/07 07:17:49;;;;;;;;;;;;;;;;;;2215940;66;2514;-21
2023/06/07 07:20:20;;;;;;;;;;;;;;;;;;2212247;66;2949;-21
2023/06/07 07:22:55;;;;;;;;;;;;;;;;;;2216056;66;2628;-22
2023/06/07 07:25:25;;;;;;;;;;;;;;;;;;2212894;66;2265;-21
2023/06/07 07:27:55;;;;;;;;;;;;;;;;;;2215587;59;2693;-21
2023/06/07 07:30:25;;;;;;;;;;;;;;;;;;2215716;59;3162;-22
2023/06/07 07:33:00;;;;;;;;;;;;;;;;;;2211194;59;3129;-21
2023/06/07 07:35:30;;;;;;;;;;;;;;;;;;2215859;58;2213;-22
2023/06/07 07:38:01;;;;;;;;;;;;;;;;;;2215929;58;2375;-22
2023/06/07 07:40:31;;;;;;;;;;;;;;;;;;2215645;58;2271;-23
2023/06/07 07:43:01;;;;;;;;;;;;;;;;;;2215672;66;2217;-21
2023/06/07 07:45:31;;;;;;;;;;;;;;;;;;2214722;66;2577;-21
2023/06/07 07:48:02;;;;;;;;;;;;;;;;;;2215531;59;3200;-21
2023/06/07 07:50:32;;;;;;;;;;;;;;;;;;2216049;66;2789;-21
2023/06/07 07:53:02;;;;;;;;;;;;;;;;;;2215671;58;2962;-21
2023/06/07 07:55:34;;;;;;;;;;;;;;;;;;2212747;59;2651;-21
2023/06/07 07:58:05;;;;;;;;;;;;;;;;;;2215171;66;2891;-21
2023/06/07 08:00:35;;;;;;;;;;;;;;;;;;2215325;58;2686;-21
2023/06/07 08:03:05;;;;;;;;;;;;;;;;;;2215446;58;2364;-21
2023/06/07 08:05:39;;;;;;;;;;;;;;;;;;2212930;66;1995;-21
2023/06/07 08:08:09;;;;;;;;;;;;;;;;;;2214674;59;3061;-21
2023/06/07 08:10:39;;;;;;;;;;;;;;;;;;2216562;66;2293;-21
2023/06/07 08:13:09;;;;;;;;;;;;;;;;;;2214398;58;2593;-22
2023/06/07 08:15:40;;;;;;;;;;;;;;;;;;2211512;58;2069;-21
2023/06/07 08:18:10;;;;;;;;;;;;;;;;;;2214289;59;2595;-21
2023/06/07 08:20:40;;;;;;;;;;;;;;;;;;2216005;66;2214;-25
2023/06/07 08:23:10;;;;;;;;;;;;;;;;;;2215144;66;3207;-21
2023/06/07 08:25:43;;;;;;;;;;;;;;;;;;2216238;66;3124;-21
2023/06/07 08:28:14;;;;;;;;;;;;;;;;;;2214903;66;2868;-21
2023/06/07 08:30:44;;;;;;;;;;;;;;;;;;2215977;66;2744;-21
2023/06/07 08:33:15;;;;;;;;;;;;;;;;;;2213151;59;2777;-21
2023/06/07 08:35:45;;;;;;;;;;;;;;;;;;2216459;59;3197;-21
2023/06/07 08:38:16;;;;;;;;;;;;;;;;;;2213529;59;3583;-21
2023/06/07 08:40:46;;;;;;;;;;;;;;;;;;2212090;59;3044;-21
2023/06/07 08:43:16;;;;;;;;;;;;;;;;;;2216298;66;2269;-21
2023/06/07 08:45:50;;;;;;;;;;;;;;;;;;2216425;66;2042;-21
2023/06/07 08:48:20;;;;;;;;;;;;;;;;;;2215703;66;2328;-21
2023/06/07 08:50:53;;;;;;;;;;;;;;;;;;2212145;59;2530;-21
2023/06/07 08:53:27;;;;;;;;;;;;;;;;;;2212458;66;2127;-21
2023/06/07 08:55:58;;;;;;;;;;;;;;;;;;2214117;59;2572;-21
2023/06/07 08:58:28;;;;;;;;;;;;;;;;;;2212693;59;2952;-21
2023/06/07 09:00:59;;;;;;;;;;;;;;;;;;2216702;58;2667;-21
2023/06/07 09:03:29;;;;;;;;;;;;;;;;;;2212788;59;2663;-21
2023/06/07 09:06:00;;;;;;;;;;;;;;;;;;2216162;66;3162;-21
2023/06/07 09:08:31;;;;;;;;;;;;;;;;;;2211248;59;2552;-21
2023/06/07 09:11:01;;;;;;;;;;;;;;;;;;2209492;66;2616;-21
2023/06/07 09:13:32;;;;;;;;;;;;;;;;;;2215119;58;2200;-21
2023/06/07 09:16:03;;;;;;;;;;;;;;;;;;2215517;58;1998;-21
2023/06/07 09:18:47;;;;;;;;;;;;;;;;;;2216405;66;3061;-21
2023/06/07 09:21:21;;;;;;;;;;;;;;;;;;2216462;66;3105;-21
2023/06/07 09:23:52;;;;;;;;;;;;;;;;;;2215709;66;2652;-21
2023/06/07 09:26:23;;;;;;;;;;;;;;;;;;2215758;66;3136;-21
2023/06/07 09:28:53;;;;;;;;;;;;;;;;;;2215516;66;3173;-21
2023/06/07 09:31:32;;;;;;;;;;;;;;;;;;2213056;66;2284;-21
2023/06/07 09:34:17;;;;;;;;;;;;;;;;;;2215847;66;2874;-21
2023/06/07 09:36:51;;;;;;;;;;;;;;;;;;2212825;59;3604;-21
2023/06/07 09:39:26;;;;;;;;;;;;;;;;;;2216033;58;2990;-21
2023/06/07 09:41:57;;;;;;;;;;;;;;;;;;2215341;66;3156;-21
2023/06/07 09:44:28;;;;;;;;;;;;;;;;;;2214817;59;2158;-21
2023/06/07 09:46:59;;;;;;;;;;;;;;;;;;2215611;59;3008;-21
2023/06/07 09:49:34;;;;;;;;;;;;;;;;;;2215101;59;2373;-21
2023/06/07 09:52:14;;;;;;;;;;;;;;;;;;2215489;59;2772;-21
2023/06/07 09:54:45;;;;;;;;;;;;;;;;;;2215927;58;2182;-20
2023/06/07 09:57:24;;;;;;;;;;;;;;;;;;2215214;66;2575;-21
2023/06/07 09:59:57;;;;;;;;;;;;;;;;;;2210628;59;3034;-21
2023/06/07 10:02:28;;;;;;;;;;;;;;;;;;2215338;58;2518;-21
2023/06/07 10:05:00;;;;;;;;;;;;;;;;;;2215606;66;3448;-20
2023/06/07 10:07:33;;;;;;;;;;;;;;;;;;2215570;66;3529;-21
2023/06/07 10:10:04;;;;;;;;;;;;;;;;;;2215760;66;3210;-20
2023/06/07 10:12:38;;;;;;;;;;;;;;;;;;2216034;66;2742;-21
2023/06/07 10:15:10;;;;;;;;;;;;;;;;;;2214753;66;2816;-21
2023/06/07 10:17:51;;;;;;;;;;;;;;;;;;2215659;66;3033;-21
2023/06/07 10:20:28;;;;;;;;;;;;;;;;;;2215227;59;2729;-20
2023/06/07 10:23:02;;;;;;;;;;;;;;;;;;2215810;59;2663;-20
2023/06/07 10:25:41;;;;;;;;;;;;;;;;;;2216156;66;2910;-20
2023/06/07 10:28:16;;;;;;;;;;;;;;;;;;2215609;59;3135;-20
2023/06/07 10:30:57;;;;;;;;;;;;;;;;;;2215890;66;2623;-20
2023/06/07 10:33:27;;;;;;;;;;;;;;;;;;2215404;59;2345;-20
2023/06/07 10:35:58;;;;;;;;;;;;;;;;;;2215757;58;3077;-20
2023/06/07 10:38:29;;;;;;;;;;;;;;;;;;2212730;59;3581;-21
2023/06/07 10:41:01;;;;;;;;;;;;;;;;;;2216050;59;2677;-21
2023/06/07 10:43:32;;;;;;;;;;;;;;;;;;2215748;66;3059;-21
2023/06/07 10:46:23;;;;;;;;;;;;;;;;;;2215979;66;2796;-21
2023/06/07 10:48:55;;;;;;;;;;;;;;;;;;2215091;66;3547;-21
2023/06/07 10:51:44;;;;;;;;;;;;;;;;;;2213279;58;2607;-21
2023/06/07 10:54:30;;;;;;;;;;;;;;;;;;2214818;58;2231;-21
2023/06/07 10:57:02;;;;;;;;;;;;;;;;;;2214720;59;2549;-21
2023/06/07 10:59:33;;;;;;;;;;;;;;;;;;2215565;59;3209;-21
2023/06/07 11:02:23;;;;;;;;;;;;;;;;;;2211526;58;2876;-21
2023/06/07 11:04:54;;;;;;;;;;;;;;;;;;2211903;66;3406;-21
2023/06/07 11:07:30;;;;;;;;;;;;;;;;;;2214978;58;2707;-21
2023/06/07 11:10:03;;;;;;;;;;;;;;;;;;2215144;59;2741;-20
2023/06/07 11:12:40;;;;;;;;;;;;;;;;;;2215484;66;3152;-21
2023/06/07 11:15:20;;;;;;;;;;;;;;;;;;2215203;59;3436;-21
2023/06/07 11:17:52;;;;;;;;;;;;;;;;;;2215979;66;2601;-21
2023/06/07 11:20:37;;;;;;;;;;;;;;;;;;2212945;66;2955;-21
2023/06/07 11:23:31;;;;;;;;;;;;;;;;;;2216137;66;2756;-21
2023/06/07 11:26:05;;;;;;;;;;;;;;;;;;2214350;66;2820;-22
2023/06/07 11:28:39;;;;;;;;;;;;;;;;;;2212862;59;2654;-21
2023/06/07 11:31:12;;;;;;;;;;;;;;;;;;2215165;58;2256;-21
2023/06/07 11:33:43;;;;;;;;;;;;;;;;;;2212685;66;2262;-21
2023/06/07 11:36:16;;;;;;;;;;;;;;;;;;2215710;58;3085;-21
2023/06/07 11:38:48;;;;;;;;;;;;;;;;;;2214146;59;3799;-21
2023/06/07 11:41:19;;;;;;;;;;;;;;;;;;2215249;59;3203;-21
2023/06/07 11:43:50;;;;;;;;;;;;;;;;;;2215533;58;3141;-21
2023/06/07 11:46:20;;;;;;;;;;;;;;;;;;2209469;59;2638;-21
2023/06/07 11:48:50;;;;;;;;;;;;;;;;;;2216440;58;3428;-21
2023/06/07 11:51:25;;;;;;;;;;;;;;;;;;2215016;58;3175;-21
2023/06/07 11:53:58;;;;;;;;;;;;;;;;;;2214677;58;2191;-21
2023/06/07 11:56:30;;;;;;;;;;;;;;;;;;2213607;58;2497;-21
2023/06/07 11:59:01;;;;;;;;;;;;;;;;;;2213732;58;2246;-21
2023/06/07 12:01:33;;;;;;;;;;;;;;;;;;2215380;58;2565;-21
2023/06/07 12:04:03;;;;;;;;;;;;;;;;;;2215333;58;2830;-21
2023/06/07 12:06:34;;;;;;;;;;;;;;;;;;2214503;66;2788;-21
2023/06/07 12:09:10;;;;;;;;;;;;;;;;;;2215196;66;3024;-21
2023/06/07 12:11:41;;;;;;;;;;;;;;;;;;2214974;58;1997;-21
2023/06/07 12:14:11;;;;;;;;;;;;;;;;;;2210885;59;2495;-21
2023/06/07 12:16:42;;;;;;;;;;;;;;;;;;2215290;66;2080;-21
2023/06/07 12:19:12;;;;;;;;;;;;;;;;;;2214834;66;2690;-21
2023/06/07 12:21:42;;;;;;;;;;;;;;;;;;2215688;59;1819;-21
2023/06/07 12:24:13;;;;;;;;;;;;;;;;;;2214949;58;2588;-21
2023/06/07 12:26:43;;;;;;;;;;;;;;;;;;2217046;58;2499;-21
2023/06/07 12:29:14;;;;;;;;;;;;;;;;;;2215237;66;1802;-21
2023/06/07 12:31:46;;;;;;;;;;;;;;;;;;2215873;58;2547;-21
2023/06/07 12:34:16;;;;;;;;;;;;;;;;;;2215382;59;2432;-21
2023/06/07 12:36:47;;;;;;;;;;;;;;;;;;2216059;58;2989;-21
2023/06/07 12:39:18;;;;;;;;;;;;;;;;;;2216063;58;2039;-21
2023/06/07 12:41:48;;;;;;;;;;;;;;;;;;2216989;58;1701;-21
2023/06/07 12:44:19;;;;;;;;;;;;;;;;;;2214473;58;2385;-21
2023/06/07 12:46:49;;;;;;;;;;;;;;;;;;2214366;58;2427;-21
2023/06/07 12:49:19;;;;;;;;;;;;;;;;;;2215516;66;2572;-21
2023/06/07 12:51:50;;;;;;;;;;;;;;;;;;2216949;58;2982;-21
2023/06/07 12:54:26;;;;;;;;;;;;;;;;;;2212543;59;2131;-21
2023/06/07 12:56:56;;;;;;;;;;;;;;;;;;2216788;66;1939;-21
2023/06/07 12:59:29;;;;;;;;;;;;;;;;;;2215057;59;2303;-21
2023/06/07 13:02:00;;;;;;;;;;;;;;;;;;2217620;58;2902;-21
2023/06/07 13:04:30;;;;;;;;;;;;;;;;;;2219115;66;2384;-21
2023/06/07 13:07:01;;;;;;;;;;;;;;;;;;2218960;66;2587;-21
2023/06/07 13:09:31;;;;;;;;;;;;;;;;;;2219361;66;2822;-21
2023/06/07 13:12:04;;;;;;;;;;;;;;;;;;2215772;66;2504;-21
2023/06/07 13:14:36;;;;;;;;;;;;;;;;;;2215944;66;2502;-21
2023/06/07 13:17:07;;;;;;;;;;;;;;;;;;2212515;66;1870;-21
2023/06/07 13:19:38;;;;;;;;;;;;;;;;;;2212296;59;2301;-21
2023/06/07 13:22:08;;;;;;;;;;;;;;;;;;2215561;66;1959;-21
2023/06/07 13:24:39;;;;;;;;;;;;;;;;;;2212432;66;2375;-21
2023/06/07 13:27:09;;;;;;;;;;;;;;;;;;2215603;66;2419;-21
2023/06/07 13:29:39;;;;;;;;;;;;;;;;;;2211780;59;2487;-21
2023/06/07 13:32:09;;;;;;;;;;;;;;;;;;2214627;58;1924;-20
2023/06/07 13:34:40;;;;;;;;;;;;;;;;;;2214765;66;3122;-20
2023/06/07 13:37:10;;;;;;;;;;;;;;;;;;2215718;59;2896;-20
2023/06/07 13:39:40;;;;;;;;;;;;;;;;;;2215018;58;2392;-20
2023/06/07 13:42:11;;;;;;;;;;;;;;;;;;2214391;66;1878;-20
2023/06/07 13:44:41;;;;;;;;;;;;;;;;;;2215320;66;1868;-20
2023/06/07 13:47:11;;;;;;;;;;;;;;;;;;2210938;66;2759;-20
2023/06/07 13:49:41;;;;;;;;;;;;;;;;;;2214874;58;2891;-20
2023/06/07 13:52:12;;;;;;;;;;;;;;;;;;2214406;58;2374;-20
2023/06/07 13:54:42;;;;;;;;;;;;;;;;;;2214560;58;2145;-20
2023/06/07 13:57:14;;;;;;;;;;;;;;;;;;2210286;66;2746;-20
2023/06/07 13:59:45;;;;;;;;;;;;;;;;;;2215165;59;2696;-20
2023/06/07 14:02:17;;;;;;;;;;;;;;;;;;2214315;58;2549;-21
2023/06/07 14:04:48;;;;;;;;;;;;;;;;;;2215213;59;1846;-21
2023/06/07 14:07:18;;;;;;;;;;;;;;;;;;2214788;59;2413;-21
2023/06/07 14:09:48;;;;;;;;;;;;;;;;;;2210958;66;2819;-21
2023/06/07 14:12:19;;;;;;;;;;;;;;;;;;2214562;66;2705;-21
2023/06/07 14:14:49;;;;;;;;;;;;;;;;;;2215677;66;2742;-21
2023/06/07 14:17:19;;;;;;;;;;;;;;;;;;2211208;66;2768;-21
2023/06/07 14:19:50;;;;;;;;;;;;;;;;;;2215154;59;3120;-20
2023/06/07 14:22:20;;;;;;;;;;;;;;;;;;2214790;66;2512;-20
2023/06/07 14:24:53;;;;;;;;;;;;;;;;;;2215664;58;2399;-20
2023/06/07 14:27:23;;;;;;;;;;;;;;;;;;2215041;59;2517;-20
2023/06/07 14:29:54;;;;;;;;;;;;;;;;;;2215068;66;1750;-20
2023/06/07 14:32:24;;;;;;;;;;;;;;;;;;2215305;58;3077;-20
2023/06/07 14:34:54;;;;;;;;;;;;;;;;;;2215578;58;2794;-20
2023/06/07 14:37:25;;;;;;;;;;;;;;;;;;2215872;58;2281;-20
2023/06/07 14:39:55;;;;;;;;;;;;;;;;;;2218399;58;2498;-20
2023/06/07 14:42:25;;;;;;;;;;;;;;;;;;2217517;66;3176;-20
2023/06/07 14:44:56;;;;;;;;;;;;;;;;;;2214919;66;2497;-20
2023/06/07 14:47:26;;;;;;;;;;;;;;;;;;2215630;58;2106;-20
2023/06/07 14:49:56;;;;;;;;;;;;;;;;;;2215338;58;2955;-20
2023/06/07 14:52:26;;;;;;;;;;;;;;;;;;2212883;58;1925;-20
2023/06/07 14:54:57;;;;;;;;;;;;;;;;;;2211940;59;2107;-20
2023/06/07 14:57:27;;;;;;;;;;;;;;;;;;2215570;58;2031;-20
2023/06/07 14:59:57;;;;;;;;;;;;;;;;;;2216270;66;1633;-20
2023/06/07 15:02:27;;;;;;;;;;;;;;;;;;2216263;58;2363;-21
2023/06/07 15:04:57;;;;;;;;;;;;;;;;;;2213390;59;2319;-21
2023/06/07 15:07:28;;;;;;;;;;;;;;;;;;2214679;58;2675;-21
2023/06/07 15:09:58;;;;;;;;;;;;;;;;;;2212731;59;2750;-21
2023/06/07 15:12:28;;;;;;;;;;;;;;;;;;2213691;59;2060;-21
2023/06/07 15:14:58;;;;;;;;;;;;;;;;;;2216350;66;2400;-21
2023/06/07 15:17:28;;;;;;;;;;;;;;;;;;2216506;58;2086;-21
2023/06/07 15:20:02;;;;;;;;;;;;;;;;;;2215682;66;2412;-21
2023/06/07 15:22:32;;;;;;;;;;;;;;;;;;2209742;66;2036;-21
2023/06/07 15:25:06;;;;;;;;;;;;;;;;;;2216055;58;2018;-21
2023/06/07 15:27:36;;;;;;;;;;;;;;;;;;2216513;66;1931;-21
2023/06/07 15:30:07;;;;;;;;;;;;;;;;;;2215836;59;2337;-21
2023/06/07 15:32:37;;;;;;;;;;;;;;;;;;2212578;59;1916;-21
2023/06/07 15:35:07;;;;;;;;;;;;;;;;;;2211793;66;2455;-21
2023/06/07 15:37:38;;;;;;;;;;;;;;;;;;2215072;58;1462;-21
2023/06/07 15:40:08;;;;;;;;;;;;;;;;;;2211633;59;2265;-21
2023/06/07 15:42:41;;;;;;;;;;;;;;;;;;2215758;58;2037;-21
2023/06/07 15:45:11;;;;;;;;;;;;;;;;;;2214863;66;1392;-21
2023/06/07 15:47:55;;;;;;;;;;;;;;;;;;2216043;58;2218;-21
2023/06/07 15:50:26;;;;;;;;;;;;;;;;;;2213989;66;3391;-21
2023/06/07 15:52:57;;;;;;;;;;;;;;;;;;2211926;59;3629;-21
2023/06/07 15:55:28;;;;;;;;;;;;;;;;;;2215259;58;2398;-21
2023/06/07 15:57:58;;;;;;;;;;;;;;;;;;2215269;59;3115;-21
2023/06/07 16:00:32;;;;;;;;;;;;;;;;;;2215359;58;2757;-21
2023/06/07 16:03:02;;;;;;;;;;;;;;;;;;2214601;58;3023;-21
2023/06/07 16:05:32;;;;;;;;;;;;;;;;;;2215526;66;2330;-21
2023/06/07 16:08:02;;;;;;;;;;;;;;;;;;2214956;66;1799;-21
2023/06/07 16:10:33;;;;;;;;;;;;;;;;;;2215343;66;2969;-21
2023/06/07 16:13:03;;;;;;;;;;;;;;;;;;2215366;59;2560;-21
2023/06/07 16:15:33;;;;;;;;;;;;;;;;;;2215209;58;2410;-21
2023/06/07 16:18:05;;;;;;;;;;;;;;;;;;2214614;58;2209;-21
2023/06/07 16:20:35;;;;;;;;;;;;;;;;;;2215124;66;2447;-21
2023/06/07 16:23:05;;;;;;;;;;;;;;;;;;2215735;58;2283;-21
2023/06/07 16:25:35;;;;;;;;;;;;;;;;;;2215599;66;3340;-21
2023/06/07 16:28:05;;;;;;;;;;;;;;;;;;2215292;66;2604;-21
2023/06/07 16:30:36;;;;;;;;;;;;;;;;;;2214605;58;2561;-22
2023/06/07 16:33:06;;;;;;;;;;;;;;;;;;2215516;66;1940;-23
2023/06/07 16:35:41;;;;;;;;;;;;;;;;;;2215237;58;2585;-23
2023/06/07 16:38:11;;;;;;;;;;;;;;;;;;2212908;59;3216;-22
2023/06/07 16:40:42;;;;;;;;;;;;;;;;;;2215506;59;2883;-22
2023/06/07 16:43:12;;;;;;;;;;;;;;;;;;2211773;66;2903;-22
2023/06/07 16:45:42;;;;;;;;;;;;;;;;;;2214369;66;2823;-22
2023/06/07 16:48:12;;;;;;;;;;;;;;;;;;2211386;59;2612;-22
2023/06/07 16:50:43;;;;;;;;;;;;;;;;;;2210918;59;2610;-22
2023/06/07 16:53:13;;;;;;;;;;;;;;;;;;2210826;66;2748;-22
2023/06/07 16:55:43;;;;;;;;;;;;;;;;;;2215398;58;1583;-22
2023/06/07 16:58:13;;;;;;;;;;;;;;;;;;2214790;59;2770;-22
2023/06/07 17:00:43;;;;;;;;;;;;;;;;;;2214572;58;2900;-22
2023/06/07 17:03:14;;;;;;;;;;;;;;;;;;2213673;59;2609;-22
2023/06/07 17:05:44;;;;;;;;;;;;;;;;;;2214981;66;1859;-22
2023/06/07 17:08:14;;;;;;;;;;;;;;;;;;2214450;66;2632;-22
2023/06/07 17:10:46;;;;;;;;;;;;;;;;;;2215462;66;2260;-22
2023/06/07 17:13:17;;;;;;;;;;;;;;;;;;2214071;66;2774;-21
2023/06/07 17:15:49;;;;;;;;;;;;;;;;;;2211539;59;1992;-22
2023/06/07 17:18:20;;;;;;;;;;;;;;;;;;2214845;59;2185;-22
2023/06/07 17:20:51;;;;;;;;;;;;;;;;;;2211804;66;1797;-22
2023/06/07 17:23:21;;;;;;;;;;;;;;;;;;2211366;66;2637;-22
2023/06/07 17:25:51;;;;;;;;;;;;;;;;;;2212119;66;2843;-22
2023/06/07 17:28:21;;;;;;;;;;;;;;;;;;2214893;66;2528;-22
2023/06/07 17:30:52;;;;;;;;;;;;;;;;;;2215045;66;2785;-22
2023/06/07 17:33:22;;;;;;;;;;;;;;;;;;2214210;66;2524;-22